createdAt,value
2022-08-09T00:00:26.409Z,87.82
2022-08-09T00:01:26.435Z,87.53
2022-08-09T00:02:26.322Z,87.72
2022-08-09T00:04:03.773Z,87.82
2022-08-09T00:04:34.902Z,87.62
2022-08-09T00:06:19.335Z,88.01
2022-08-09T00:06:26.159Z,88.10
2022-08-09T00:07:26.107Z,88.10
2022-08-09T00:08:32.609Z,88.39
2022-08-09T00:09:26.019Z,88.20
2022-08-09T00:10:25.974Z,87.82
2022-08-09T00:11:58.441Z,88.20
2022-08-09T00:12:25.886Z,87.92
2022-08-09T00:13:25.848Z,88.59
2022-08-09T00:14:37.908Z,88.49
2022-08-09T00:15:26.351Z,88.78
2022-08-09T00:16:26.248Z,88.45
2022-08-09T00:18:05.284Z,88.54
2022-08-09T00:18:25.626Z,88.59
2022-08-09T00:19:27.677Z,88.54
2022-08-09T00:20:25.539Z,88.45
2022-08-09T00:21:25.501Z,88.59
2022-08-09T00:22:25.453Z,88.73
2022-08-09T00:23:57.762Z,88.68
2022-08-09T00:24:27.391Z,88.83
2022-08-09T00:25:32.018Z,88.64
2022-08-09T00:26:29.837Z,89.31
2022-08-09T00:27:25.234Z,88.83
2022-08-09T00:28:27.195Z,88.73
2022-08-09T00:29:39.435Z,89.12
2022-08-09T00:30:27.007Z,88.73
2022-08-09T00:31:57.410Z,88.54
2022-08-09T00:32:25.286Z,89.31
2022-08-09T00:33:32.545Z,89.02
2022-08-09T00:34:24.929Z,89.22
2022-08-09T00:35:24.885Z,89.98
2022-08-09T00:36:27.126Z,89.40
2022-08-09T00:37:24.800Z,89.40
2022-08-09T00:38:24.755Z,89.40
2022-08-09T00:40:13.494Z,89.40
2022-08-09T00:40:30.237Z,89.79
2022-08-09T00:44:11.266Z,89.40
2022-08-09T00:44:14.341Z,89.89
2022-08-09T00:44:14.881Z,89.40
2022-08-09T00:44:26.753Z,89.40
2022-08-09T00:45:24.449Z,89.50
2022-08-09T00:46:55.250Z,90.17
2022-08-09T00:47:25.024Z,90.27
2022-08-09T00:48:24.320Z,90.56
2022-08-09T00:49:24.279Z,90.37
2022-08-09T00:50:24.246Z,90.46
2022-08-09T00:51:24.186Z,90.17
2022-08-09T00:52:30.091Z,90.75
2022-08-09T00:53:24.566Z,90.08
2022-08-09T00:54:31.479Z,90.75
2022-08-09T00:55:54.185Z,90.56
2022-08-09T00:56:23.967Z,90.66
2022-08-09T00:57:31.873Z,90.56
2022-08-09T00:58:27.634Z,90.37
2022-08-09T00:59:31.681Z,90.56
2022-08-09T01:00:23.888Z,90.94
2022-08-09T01:01:23.783Z,90.84
2022-08-09T01:02:23.752Z,91.13
2022-08-09T01:03:23.664Z,90.75
2022-08-09T01:04:23.621Z,90.56
2022-08-09T01:05:51.418Z,90.70
2022-08-09T01:06:25.508Z,91.13
2022-08-09T01:07:37.679Z,90.94
2022-08-09T01:08:26.938Z,91.04
2022-08-09T01:09:23.427Z,91.04
2022-08-09T01:10:23.355Z,91.04
2022-08-09T01:11:23.313Z,91.42
2022-08-09T01:12:23.271Z,91.28
2022-08-09T01:13:23.226Z,91.57
2022-08-09T01:14:23.183Z,91.33
2022-08-09T01:15:23.137Z,91.09
2022-08-09T01:16:23.093Z,91.28
2022-08-09T01:17:23.053Z,91.38
2022-08-09T01:18:30.562Z,91.47
2022-08-09T01:19:40.211Z,91.86
2022-08-09T01:20:23.486Z,92.14
2022-08-09T01:21:24.770Z,91.86
2022-08-09T01:22:22.831Z,92.14
2022-08-09T01:24:02.974Z,92.43
2022-08-09T01:24:22.746Z,92.72
2022-08-09T01:25:22.699Z,92.72
2022-08-09T01:26:22.656Z,92.63
2022-08-09T01:27:22.610Z,93.20
2022-08-09T01:28:22.569Z,92.91
2022-08-09T01:29:22.526Z,92.82
2022-08-09T01:30:33.512Z,92.91
2022-08-09T01:32:28.161Z,92.82
2022-08-09T01:32:31.481Z,92.72
2022-08-09T01:33:22.347Z,92.82
2022-08-09T01:34:22.305Z,93.10
2022-08-09T01:35:37.717Z,93.49
2022-08-09T01:36:22.218Z,93.59
2022-08-09T01:38:06.005Z,93.87
2022-08-09T01:38:23.387Z,93.68
2022-08-09T01:39:23.313Z,93.97
2022-08-09T01:40:23.021Z,93.97
2022-08-09T01:41:25.729Z,93.68
2022-08-09T01:42:21.955Z,93.68
2022-08-09T01:43:21.911Z,94.07
2022-08-09T01:44:21.867Z,94.64
2022-08-09T01:45:21.823Z,94.93
2022-08-09T01:46:23.973Z,94.07
2022-08-09T01:47:21.733Z,93.97
2022-08-09T01:48:24.138Z,93.97
2022-08-09T01:49:24.227Z,94.26
2022-08-09T01:50:29.897Z,94.26
2022-08-09T01:51:22.824Z,94.45
2022-08-09T01:52:21.515Z,94.45
2022-08-09T01:53:21.589Z,94.45
2022-08-09T01:54:21.431Z,94.64
2022-08-09T01:55:21.385Z,94.54
2022-08-09T01:56:21.341Z,95.41
2022-08-09T01:57:21.756Z,95.26
2022-08-09T01:58:23.944Z,95.31
2022-08-09T01:59:21.213Z,95.94
2022-08-09T02:00:35.897Z,95.65
2022-08-09T02:01:21.377Z,95.55
2022-08-09T02:02:21.797Z,95.98
2022-08-09T02:03:21.030Z,95.70
2022-08-09T02:04:20.994Z,95.55
2022-08-09T02:05:20.941Z,95.75
2022-08-09T02:06:20.900Z,95.26
2022-08-09T02:08:41.105Z,95.46
2022-08-09T02:08:41.354Z,95.65
2022-08-09T02:09:20.773Z,95.46
2022-08-09T02:10:20.724Z,95.46
2022-08-09T02:11:20.677Z,95.55
2022-08-09T02:12:21.203Z,96.03
2022-08-09T02:13:21.862Z,96.70
2022-08-09T02:14:25.641Z,96.70
2022-08-09T02:15:20.503Z,96.51
2022-08-09T02:16:20.460Z,96.70
2022-08-09T02:17:59.242Z,96.51
2022-08-09T02:18:20.389Z,96.32
2022-08-09T02:19:20.327Z,96.80
2022-08-09T02:20:25.330Z,97.19
2022-08-09T02:21:22.163Z,96.99
2022-08-09T02:22:31.675Z,97.28
2022-08-09T02:23:20.149Z,97.28
2022-08-09T02:24:26.161Z,96.99
2022-08-09T02:25:20.063Z,97.47
2022-08-09T02:26:26.766Z,97.56
2022-08-09T02:27:19.974Z,97.76
2022-08-09T02:28:19.932Z,97.76
2022-08-09T02:29:19.885Z,97.76
2022-08-09T02:30:19.846Z,97.95
2022-08-09T02:31:19.797Z,98.05
2022-08-09T02:32:19.756Z,97.76
2022-08-09T02:33:19.710Z,97.28
2022-08-09T02:34:40.179Z,97.38
2022-08-09T02:35:23.086Z,97.95
2022-08-09T02:36:19.581Z,97.95
2022-08-09T02:37:19.533Z,98.33
2022-08-09T02:38:27.943Z,97.76
2022-08-09T02:39:33.210Z,98.14
2022-08-09T02:40:19.424Z,97.95
2022-08-09T02:41:19.358Z,98.33
2022-08-09T02:42:19.522Z,98.33
2022-08-09T02:43:19.270Z,98.33
2022-08-09T02:44:29.412Z,98.33
2022-08-09T02:45:19.182Z,97.86
2022-08-09T02:46:19.138Z,98.43
2022-08-09T02:47:19.093Z,99.20
2022-08-09T02:48:29.758Z,99.29
2022-08-09T02:49:19.009Z,99.39
2022-08-09T02:50:18.967Z,99.49
2022-08-09T02:51:18.917Z,99.20
2022-08-09T02:52:18.876Z,99.29
2022-08-09T02:53:26.204Z,99.10
2022-08-09T02:54:18.785Z,99.29
2022-08-09T02:55:20.695Z,99.49
2022-08-09T02:56:18.698Z,99.20
2022-08-09T02:57:23.654Z,98.53
2022-08-09T02:58:35.469Z,99.20
2022-08-09T02:59:26.354Z,99.39
2022-08-09T03:00:25.145Z,99.49
2022-08-09T03:01:21.818Z,99.68
2022-08-09T03:02:18.480Z,99.39
2022-08-09T03:03:21.426Z,99.96
2022-08-09T03:04:19.755Z,99.91
2022-08-09T03:05:18.299Z,99.99
2022-08-09T03:06:18.259Z,99.99
2022-08-09T03:07:18.210Z,99.99
2022-08-09T03:08:18.169Z,99.99
2022-08-09T03:09:18.136Z,99.99
2022-08-09T03:10:18.082Z,99.99
2022-08-09T03:11:29.976Z,99.99
2022-08-09T03:12:17.991Z,99.99
2022-08-09T03:13:17.948Z,99.99
2022-08-09T03:14:17.912Z,99.99
2022-08-09T03:15:17.861Z,99.99
2022-08-09T03:16:17.814Z,99.99
2022-08-09T03:17:26.434Z,99.99
2022-08-09T03:18:19.179Z,99.99
2022-08-09T03:19:52.296Z,99.99
2022-08-09T03:20:17.639Z,99.99
2022-08-09T03:21:17.592Z,99.99
2022-08-09T03:22:25.549Z,99.99
2022-08-09T03:23:24.138Z,99.99
2022-08-09T03:24:31.261Z,99.99
2022-08-09T03:25:26.181Z,99.99
2022-08-09T03:26:17.372Z,99.99
2022-08-09T03:27:17.329Z,99.99
2022-08-09T03:28:17.284Z,99.99
2022-08-09T03:29:23.008Z,99.99
2022-08-09T03:30:29.877Z,99.99
2022-08-09T03:31:22.800Z,99.99
2022-08-09T03:32:17.111Z,99.99
2022-08-09T03:33:19.050Z,99.99
2022-08-09T03:34:17.022Z,99.99
2022-08-09T03:35:24.845Z,99.99
2022-08-09T03:36:17.263Z,99.99
2022-08-09T03:37:56.589Z,99.99
2022-08-09T03:38:28.683Z,99.99
2022-08-09T03:39:16.903Z,99.99
2022-08-09T03:40:18.078Z,99.99
2022-08-09T03:41:18.531Z,99.99
2022-08-09T03:42:16.665Z,99.99
2022-08-09T03:43:16.622Z,99.99
2022-08-09T03:44:16.586Z,99.99
2022-08-09T03:45:16.532Z,99.99
2022-08-09T03:46:26.985Z,99.99
2022-08-09T03:47:16.445Z,99.99
2022-08-09T03:48:18.875Z,99.99
2022-08-09T03:49:16.602Z,99.99
2022-08-09T03:50:18.869Z,99.99
2022-08-09T03:51:55.924Z,99.99
2022-08-09T03:52:16.223Z,99.99
2022-08-09T03:53:16.179Z,99.99
2022-08-09T03:54:16.134Z,99.99
2022-08-09T03:55:16.087Z,99.99
2022-08-09T03:56:16.046Z,99.99
2022-08-09T03:57:19.995Z,99.99
2022-08-09T03:58:17.080Z,99.99
2022-08-09T03:59:20.808Z,99.99
2022-08-09T04:00:15.870Z,99.99
2022-08-09T04:01:15.876Z,99.99
2022-08-09T04:02:26.085Z,99.99
2022-08-09T04:03:24.504Z,99.99
2022-08-09T04:04:15.693Z,99.99
2022-08-09T04:05:27.907Z,99.99
2022-08-09T04:06:15.601Z,99.99
2022-08-09T04:07:16.005Z,99.99
2022-08-09T04:08:15.517Z,99.99
2022-08-09T04:09:41.729Z,99.99
2022-08-09T04:10:15.424Z,99.99
2022-08-09T04:11:15.380Z,99.99
2022-08-09T04:12:30.529Z,99.99
2022-08-09T04:13:15.292Z,99.99
2022-08-09T04:14:59.111Z,99.99
2022-08-09T04:15:29.646Z,99.99
2022-08-09T04:16:19.537Z,99.99
2022-08-09T04:17:15.116Z,99.99
2022-08-09T04:18:17.853Z,99.99
2022-08-09T04:19:30.049Z,99.99
2022-08-09T04:20:14.986Z,99.99
2022-08-09T04:21:14.937Z,99.99
2022-08-09T04:22:14.892Z,99.99
2022-08-09T04:23:17.116Z,99.99
2022-08-09T04:24:14.807Z,99.99
2022-08-09T04:25:14.759Z,99.99
2022-08-09T04:26:14.718Z,99.99
2022-08-09T04:27:14.670Z,99.99
2022-08-09T04:28:14.627Z,99.99
2022-08-09T04:29:15.764Z,99.99
2022-08-09T04:30:14.541Z,99.99
2022-08-09T04:31:14.497Z,99.99
2022-08-09T04:32:14.448Z,99.99
2022-08-09T04:33:14.404Z,99.99
2022-08-09T04:34:14.367Z,99.99
2022-08-09T04:35:14.314Z,99.99
2022-08-09T04:36:14.271Z,99.99
2022-08-09T04:37:14.228Z,99.99
2022-08-09T04:38:14.182Z,99.99
2022-08-09T04:39:14.262Z,99.99
2022-08-09T04:40:18.997Z,99.99
2022-08-09T04:41:14.074Z,99.99
2022-08-09T04:42:15.794Z,99.99
2022-08-09T04:43:14.269Z,99.99
2022-08-09T04:44:14.402Z,99.99
2022-08-09T04:45:14.580Z,99.99
2022-08-09T04:46:19.229Z,99.99
2022-08-09T04:47:13.797Z,99.99
2022-08-09T04:48:14.168Z,99.99
2022-08-09T04:49:14.816Z,99.99
2022-08-09T04:50:13.674Z,99.99
2022-08-09T04:51:13.629Z,99.99
2022-08-09T04:53:13.949Z,99.99
2022-08-09T04:55:13.440Z,99.99
2022-08-09T04:56:13.397Z,99.99
2022-08-09T04:57:13.357Z,99.99
2022-08-09T04:58:13.314Z,99.99
2022-08-09T04:59:15.677Z,99.99
2022-08-09T05:00:13.229Z,99.99
2022-08-09T05:01:16.493Z,99.99
2022-08-09T05:02:13.166Z,99.99
2022-08-09T05:03:40.390Z,99.99
2022-08-09T05:04:13.069Z,99.99
2022-08-09T05:05:13.010Z,99.99
2022-08-09T05:06:25.874Z,99.99
2022-08-09T05:07:19.257Z,99.99
2022-08-09T05:08:13.991Z,99.99
2022-08-09T05:09:12.830Z,99.99
2022-08-09T05:10:12.790Z,99.99
2022-08-09T05:11:12.744Z,99.99
2022-08-09T05:12:12.802Z,99.99
2022-08-09T05:13:12.660Z,99.99
2022-08-09T05:14:12.617Z,99.99
2022-08-09T05:15:38.743Z,99.99
2022-08-09T05:16:12.528Z,99.99
2022-08-09T05:17:15.369Z,99.99
2022-08-09T05:18:39.559Z,99.99
2022-08-09T05:19:12.397Z,99.99
2022-08-09T05:20:12.352Z,99.99
2022-08-09T05:21:23.328Z,99.99
2022-08-09T05:22:34.944Z,99.99
2022-08-09T05:23:54.027Z,99.99
2022-08-09T05:24:12.183Z,99.99
2022-08-09T05:25:12.130Z,99.99
2022-08-09T05:26:16.084Z,99.99
2022-08-09T05:27:12.042Z,99.99
2022-08-09T05:28:11.999Z,99.99
2022-08-09T05:29:17.239Z,99.99
2022-08-09T05:30:11.913Z,99.99
2022-08-09T05:31:11.868Z,99.99
2022-08-09T05:32:11.825Z,99.99
2022-08-09T05:33:11.778Z,99.99
2022-08-09T05:34:16.822Z,99.99
2022-08-09T05:35:11.691Z,99.99
2022-08-09T05:36:11.650Z,99.99
2022-08-09T05:37:11.669Z,99.99
2022-08-09T05:38:11.557Z,99.99
2022-08-09T05:39:11.545Z,99.99
2022-08-09T05:40:11.518Z,99.99
2022-08-09T05:41:12.822Z,99.99
2022-08-09T05:42:17.936Z,99.99
2022-08-09T05:43:11.341Z,99.99
2022-08-09T05:44:11.299Z,99.99
2022-08-09T05:45:14.706Z,99.99
2022-08-09T05:46:11.206Z,99.99
2022-08-09T05:47:11.162Z,99.99
2022-08-09T05:48:11.126Z,99.99
2022-08-09T05:49:33.855Z,99.99
2022-08-09T05:50:30.684Z,99.99
2022-08-09T05:51:29.876Z,99.99
2022-08-09T05:52:10.979Z,99.99
2022-08-09T05:53:21.440Z,99.99
2022-08-09T05:54:10.850Z,99.99
2022-08-09T05:55:18.160Z,99.99
2022-08-09T05:56:10.761Z,99.99
2022-08-09T05:57:12.819Z,99.99
2022-08-09T05:58:10.675Z,99.99
2022-08-09T05:59:10.671Z,99.99
2022-08-09T06:00:10.593Z,99.99
2022-08-09T06:01:10.545Z,99.99
2022-08-09T06:02:10.500Z,99.99
2022-08-09T06:03:11.093Z,99.99
2022-08-09T06:04:10.458Z,99.99
2022-08-09T06:05:10.370Z,99.99
2022-08-09T06:06:10.323Z,99.99
2022-08-09T06:07:10.278Z,99.99
2022-08-09T06:08:11.982Z,99.99
2022-08-09T06:09:53.914Z,99.99
2022-08-09T06:10:15.791Z,99.99
2022-08-09T06:11:16.615Z,99.99
2022-08-09T06:12:10.058Z,99.99
2022-08-09T06:13:12.063Z,99.99
2022-08-09T06:14:09.970Z,99.99
2022-08-09T06:15:09.987Z,99.99
2022-08-09T06:16:09.883Z,99.99
2022-08-09T06:17:10.226Z,99.99
2022-08-09T06:18:09.793Z,99.99
2022-08-09T06:19:09.751Z,99.99
2022-08-09T06:20:09.705Z,99.99
2022-08-09T06:21:10.266Z,99.99
2022-08-09T06:22:15.206Z,99.99
2022-08-09T06:23:12.045Z,99.99
2022-08-09T06:24:09.536Z,99.99
2022-08-09T06:25:12.322Z,99.99
2022-08-09T06:26:09.442Z,99.99
2022-08-09T06:27:09.399Z,99.99
2022-08-09T06:28:09.359Z,99.99
2022-08-09T06:29:09.317Z,99.99
2022-08-09T06:30:10.014Z,99.99
2022-08-09T06:31:09.227Z,99.99
2022-08-09T06:32:53.388Z,99.99
2022-08-09T06:33:13.755Z,99.99
2022-08-09T06:34:09.501Z,99.99
2022-08-09T06:35:09.053Z,99.99
2022-08-09T06:36:09.011Z,99.99
2022-08-09T06:37:10.168Z,99.99
2022-08-09T06:38:08.919Z,99.99
2022-08-09T06:39:11.388Z,99.83
2022-08-09T06:40:21.579Z,99.54
2022-08-09T06:41:18.065Z,99.83
2022-08-09T06:42:11.575Z,99.73
2022-08-09T06:43:10.675Z,99.78
2022-08-09T06:44:08.655Z,99.98
2022-08-09T06:46:04.530Z,99.30
2022-08-09T06:46:10.692Z,99.49
2022-08-09T06:47:08.587Z,98.72
2022-08-09T06:48:08.481Z,98.53
2022-08-09T06:49:08.440Z,98.82
2022-08-09T06:50:14.704Z,98.14
2022-08-09T06:51:08.355Z,97.86
2022-08-09T06:52:08.306Z,98.34
2022-08-09T06:53:08.263Z,97.38
2022-08-09T06:54:09.281Z,97.19
2022-08-09T06:55:12.671Z,97.28
2022-08-09T06:56:09.269Z,97.47
2022-08-09T06:57:08.248Z,97.38
2022-08-09T06:58:08.042Z,97.42
2022-08-09T07:00:49.068Z,97.52
2022-08-09T07:00:56.313Z,97.42
2022-08-09T07:01:08.157Z,96.75
2022-08-09T07:02:07.889Z,96.17
2022-08-09T07:03:07.829Z,95.70
2022-08-09T07:04:07.784Z,95.79
2022-08-09T07:05:07.744Z,95.79
2022-08-09T07:06:07.695Z,95.89
2022-08-09T07:07:07.654Z,95.40
2022-08-09T07:08:07.610Z,95.31
2022-08-09T07:09:07.568Z,95.40
2022-08-09T07:10:24.087Z,95.21
2022-08-09T07:11:07.490Z,94.64
2022-08-09T07:12:07.440Z,94.64
2022-08-09T07:13:27.438Z,94.83
2022-08-09T07:14:07.349Z,94.97
2022-08-09T07:15:53.904Z,94.68
2022-08-09T07:16:41.316Z,95.17
2022-08-09T07:17:08.061Z,94.10
2022-08-09T07:18:07.177Z,94.40
2022-08-09T07:19:07.813Z,93.91
2022-08-09T07:20:07.090Z,93.62
2022-08-09T07:21:07.966Z,93.33
2022-08-09T07:22:07.003Z,93.24
2022-08-09T07:23:18.796Z,93.48
2022-08-09T07:24:06.918Z,93.15
2022-08-09T07:25:09.592Z,92.71
2022-08-09T07:26:06.830Z,92.52
2022-08-09T07:27:23.862Z,92.61
2022-08-09T07:28:06.744Z,92.71
2022-08-09T07:29:11.794Z,92.71
2022-08-09T07:30:06.660Z,92.13
2022-08-09T07:31:06.616Z,92.52
2022-08-09T07:32:06.584Z,91.75
2022-08-09T07:33:10.265Z,91.50
2022-08-09T07:34:06.497Z,91.60
2022-08-09T07:35:10.533Z,91.21
2022-08-09T07:36:06.401Z,91.79
2022-08-09T07:37:06.358Z,91.50
2022-08-09T07:38:06.313Z,91.41
2022-08-09T07:39:06.356Z,90.16
2022-08-09T07:40:06.284Z,89.19
2022-08-09T07:41:12.713Z,88.90
2022-08-09T07:42:06.294Z,88.90
2022-08-09T07:43:14.750Z,88.90
2022-08-09T07:44:06.059Z,88.85
2022-08-09T07:45:14.974Z,89.72
2022-08-09T07:46:05.971Z,88.65
2022-08-09T07:47:05.930Z,88.37
2022-08-09T07:48:05.914Z,88.27
2022-08-09T07:49:05.867Z,88.08
2022-08-09T07:50:08.712Z,87.02
2022-08-09T07:52:03.150Z,87.21
2022-08-09T07:52:16.804Z,86.82
2022-08-09T07:53:05.677Z,86.68
2022-08-09T07:54:08.460Z,86.29
2022-08-09T07:55:08.923Z,86.29
2022-08-09T07:56:06.512Z,86.19
2022-08-09T07:57:05.505Z,86.48
2022-08-09T07:58:05.468Z,86.00
2022-08-09T07:59:10.486Z,85.91
2022-08-09T08:00:08.756Z,85.71
2022-08-09T08:01:06.303Z,86.19
2022-08-09T08:02:05.467Z,85.56
2022-08-09T08:03:08.333Z,85.46
2022-08-09T08:04:10.427Z,85.66
2022-08-09T08:05:05.172Z,85.17
2022-08-09T08:06:05.120Z,84.98
2022-08-09T08:07:15.370Z,84.98
2022-08-09T08:08:43.951Z,84.50
2022-08-09T08:09:07.675Z,84.01
2022-08-09T08:10:10.485Z,83.44
2022-08-09T08:12:10.166Z,83.19
2022-08-09T08:12:11.582Z,83.29
2022-08-09T08:13:04.823Z,83.48
2022-08-09T08:14:06.396Z,83.48
2022-08-09T08:15:04.742Z,82.81
2022-08-09T08:16:04.696Z,83.00
2022-08-09T08:17:08.757Z,81.93
2022-08-09T08:18:04.619Z,82.51
2022-08-09T08:19:04.797Z,82.13
2022-08-09T08:20:04.527Z,81.88
2022-08-09T08:21:04.490Z,81.68
2022-08-09T08:22:04.443Z,81.59
2022-08-09T08:23:16.236Z,81.01
2022-08-09T08:24:11.425Z,80.72
2022-08-09T08:25:04.521Z,80.14
2022-08-09T08:26:08.262Z,80.05
2022-08-09T08:27:04.236Z,80.33
2022-08-09T08:28:04.193Z,79.66
2022-08-09T08:29:04.154Z,79.50
2022-08-09T08:30:04.533Z,79.60
2022-08-09T08:31:13.985Z,78.92
2022-08-09T08:32:05.921Z,78.34
2022-08-09T08:33:04.336Z,78.83
2022-08-09T08:34:03.938Z,79.02
2022-08-09T08:35:03.907Z,78.64
2022-08-09T08:36:04.097Z,77.48
2022-08-09T08:37:03.817Z,78.00
2022-08-09T08:38:09.304Z,78.00
2022-08-09T08:39:03.886Z,77.61
2022-08-09T08:40:03.717Z,78.29
2022-08-09T08:41:05.696Z,77.51
2022-08-09T08:42:03.606Z,77.22
2022-08-09T08:43:13.180Z,77.45
2022-08-09T08:44:03.745Z,77.26
2022-08-09T08:45:13.479Z,76.59
2022-08-09T08:46:10.040Z,75.71
2022-08-09T08:47:12.526Z,75.91
2022-08-09T08:48:03.359Z,76.01
2022-08-09T08:49:03.315Z,75.43
2022-08-09T08:50:03.286Z,74.69
2022-08-09T08:51:03.230Z,74.30
2022-08-09T08:52:04.225Z,74.40
2022-08-09T08:53:03.641Z,74.49
2022-08-09T08:54:04.915Z,74.98
2022-08-09T08:55:03.917Z,75.17
2022-08-09T08:56:03.027Z,74.88
2022-08-09T08:57:02.983Z,74.43
2022-08-09T08:58:03.151Z,74.34
2022-08-09T08:59:07.984Z,73.95
2022-08-09T09:00:02.856Z,73.89
2022-08-09T09:01:02.889Z,73.60
2022-08-09T09:02:02.829Z,73.21
2022-08-09T09:03:08.733Z,72.05
2022-08-09T09:04:02.691Z,72.34
2022-08-09T09:05:05.888Z,71.60
2022-08-09T09:06:04.496Z,71.31
2022-08-09T09:07:02.572Z,70.92
2022-08-09T09:08:02.529Z,71.31
2022-08-09T09:09:02.486Z,70.15
2022-08-09T09:10:04.964Z,70.76
2022-08-09T09:11:02.587Z,70.57
2022-08-09T09:12:02.368Z,70.76
2022-08-09T09:13:09.254Z,69.50
2022-08-09T09:14:02.285Z,69.21
2022-08-09T09:15:02.242Z,69.21
2022-08-09T09:16:02.196Z,68.86
2022-08-09T09:17:02.160Z,68.47
2022-08-09T09:18:02.116Z,67.60
2022-08-09T09:19:37.508Z,66.44
2022-08-09T09:20:02.035Z,67.02
2022-08-09T09:21:01.997Z,67.02
2022-08-09T09:22:03.857Z,66.95
2022-08-09T09:23:02.420Z,67.14
2022-08-09T09:24:04.750Z,65.89
2022-08-09T09:26:01.381Z,65.59
2022-08-09T09:26:12.624Z,65.98
2022-08-09T09:27:01.755Z,66.47
2022-08-09T09:28:06.739Z,66.27
2022-08-09T09:29:10.476Z,65.11
2022-08-09T09:30:12.377Z,65.63
2022-08-09T09:31:01.592Z,65.33
2022-08-09T09:32:05.834Z,65.05
2022-08-09T09:33:01.508Z,64.85
2022-08-09T09:34:01.468Z,64.65
2022-08-09T09:35:01.426Z,64.07
2022-08-09T09:36:11.636Z,63.59
2022-08-09T09:37:01.345Z,62.62
2022-08-09T09:38:01.303Z,63.20
2022-08-09T09:39:01.263Z,63.81
2022-08-09T09:40:02.619Z,63.91
2022-08-09T09:41:01.184Z,62.74
2022-08-09T09:42:01.146Z,61.38
2022-08-09T09:43:01.104Z,60.71
2022-08-09T09:44:11.642Z,61.29
2022-08-09T09:45:01.026Z,61.41
2022-08-09T09:47:00.942Z,61.02
2022-08-09T09:48:00.903Z,61.41
2022-08-09T09:49:00.868Z,60.83
2022-08-09T09:50:15.011Z,61.02
2022-08-09T09:51:00.789Z,60.38
2022-08-09T09:52:00.744Z,60.38
2022-08-09T09:53:00.786Z,59.89
2022-08-09T09:54:01.270Z,59.99
2022-08-09T09:55:00.620Z,60.47
2022-08-09T09:56:05.236Z,60.96
2022-08-09T09:58:03.461Z,60.38
2022-08-09T09:58:17.218Z,60.67
2022-08-09T09:59:00.461Z,60.38
2022-08-09T10:00:00.429Z,59.59
2022-08-09T10:01:00.384Z,59.82
2022-08-09T10:02:00.347Z,59.14
2022-08-09T10:03:00.382Z,59.72
2022-08-09T10:04:03.226Z,59.33
2022-08-09T10:05:00.222Z,59.05
2022-08-09T10:06:04.011Z,59.14
2022-08-09T10:07:03.529Z,59.33
2022-08-09T10:08:10.651Z,59.14
2022-08-09T10:09:00.071Z,58.46
2022-08-09T10:10:00.024Z,58.36
2022-08-09T10:10:59.984Z,57.87
2022-08-09T10:12:11.970Z,58.17
2022-08-09T10:13:00.119Z,57.87
2022-08-09T10:13:59.864Z,58.56
2022-08-09T10:14:59.825Z,57.97
2022-08-09T10:16:54.623Z,58.49
2022-08-09T10:17:11.335Z,58.10
2022-08-09T10:17:59.728Z,58.29
2022-08-09T10:18:59.967Z,56.05
2022-08-09T10:19:59.954Z,55.86
2022-08-09T10:20:59.589Z,56.45
2022-08-09T10:21:59.548Z,55.66
2022-08-09T10:23:00.784Z,56.05
2022-08-09T10:23:59.473Z,56.25
2022-08-09T10:24:59.427Z,56.25
2022-08-09T10:26:07.713Z,56.15
2022-08-09T10:26:59.347Z,56.37
2022-08-09T10:27:59.311Z,56.67
2022-08-09T10:29:36.729Z,56.18
2022-08-09T10:30:41.860Z,56.09
2022-08-09T10:32:37.271Z,55.69
2022-08-09T10:32:59.111Z,56.18
2022-08-09T10:34:09.907Z,55.79
2022-08-09T10:34:59.032Z,55.69
2022-08-09T10:36:00.737Z,55.52
2022-08-09T10:36:58.954Z,55.62
2022-08-09T10:37:58.918Z,56.11
2022-08-09T10:38:59.921Z,55.72
2022-08-09T10:39:58.915Z,55.52
2022-08-09T10:40:58.826Z,54.36
2022-08-09T10:41:58.755Z,54.55
2022-08-09T10:42:58.715Z,54.85
2022-08-09T10:44:01.935Z,54.26
2022-08-09T10:44:58.640Z,54.28
2022-08-09T10:46:00.267Z,54.48
2022-08-09T10:47:00.591Z,54.48
2022-08-09T10:48:14.488Z,54.77
2022-08-09T10:48:58.481Z,54.97
2022-08-09T10:49:58.443Z,54.77
2022-08-09T10:50:58.401Z,54.41
2022-08-09T10:51:58.441Z,54.21
2022-08-09T10:52:58.323Z,53.83
2022-08-09T10:53:58.293Z,54.50
2022-08-09T10:54:58.246Z,54.11
2022-08-09T10:56:00.212Z,52.66
2022-08-09T10:56:58.167Z,52.26
2022-08-09T10:58:00.207Z,52.66
2022-08-09T10:58:58.088Z,52.95
2022-08-09T11:00:01.666Z,52.66
2022-08-09T11:03:02.788Z,52.95
2022-08-09T11:03:11.444Z,52.56
2022-08-09T11:03:13.711Z,52.95
2022-08-09T11:04:03.711Z,52.36
2022-08-09T11:04:57.910Z,52.66
2022-08-09T11:06:00.634Z,52.29
2022-08-09T11:06:57.778Z,51.97
2022-08-09T11:07:59.418Z,52.39
2022-08-09T11:09:15.412Z,51.70
2022-08-09T11:09:59.811Z,52.39
2022-08-09T11:11:00.707Z,51.51
2022-08-09T11:11:57.585Z,51.80
2022-08-09T11:12:57.544Z,52.48
2022-08-09T11:13:57.508Z,51.92
2022-08-09T11:14:57.632Z,51.53
2022-08-09T11:16:04.764Z,51.43
2022-08-09T11:16:57.389Z,50.85
2022-08-09T11:18:03.766Z,51.43
2022-08-09T11:18:57.312Z,51.63
2022-08-09T11:20:11.463Z,50.56
2022-08-09T11:20:57.238Z,49.29
2022-08-09T11:22:05.219Z,50.07
2022-08-09T11:22:58.512Z,50.46
2022-08-09T11:23:57.121Z,50.07
2022-08-09T11:24:57.083Z,51.24
2022-08-09T11:26:57.008Z,49.02
2022-08-09T11:28:04.630Z,48.83
2022-08-09T11:28:57.296Z,50.00
2022-08-09T11:30:04.820Z,49.41
2022-08-09T11:30:56.855Z,50.02
2022-08-09T11:31:56.813Z,49.73
2022-08-09T11:32:56.773Z,48.94
2022-08-09T11:33:56.737Z,48.85
2022-08-09T11:34:56.700Z,48.36
2022-08-09T11:35:56.659Z,48.55
2022-08-09T11:36:56.750Z,49.04
2022-08-09T11:37:56.579Z,48.77
2022-08-09T11:38:56.557Z,48.19
2022-08-09T11:39:56.541Z,48.38
2022-08-09T11:40:56.474Z,48.09
2022-08-09T11:41:58.905Z,48.28
2022-08-09T11:42:56.390Z,47.50
2022-08-09T11:43:56.361Z,47.99
2022-08-09T11:44:57.292Z,48.87
2022-08-09T11:45:56.275Z,47.02
2022-08-09T11:46:56.239Z,49.36
2022-08-09T11:47:59.962Z,47.21
2022-08-09T11:48:56.169Z,46.65
2022-08-09T11:50:56.287Z,45.84
2022-08-09T11:51:19.201Z,45.84
2022-08-09T11:52:53.819Z,45.84
2022-08-09T11:53:28.055Z,46.14
2022-08-09T11:54:01.210Z,47.21
2022-08-09T11:54:55.939Z,48.02
2022-08-09T11:56:02.634Z,47.72
2022-08-09T11:56:55.861Z,47.14
2022-08-09T11:58:02.110Z,47.33
2022-08-09T11:58:55.781Z,47.53
2022-08-09T11:59:55.743Z,46.86
2022-08-09T12:00:55.709Z,46.37
2022-08-09T12:02:18.086Z,46.86
2022-08-09T12:02:55.819Z,47.26
2022-08-09T12:03:58.135Z,48.36
2022-08-09T12:04:58.926Z,47.18
2022-08-09T12:05:55.516Z,46.89
2022-08-09T12:06:56.020Z,46.89
2022-08-09T12:07:55.441Z,44.73
2022-08-09T12:08:55.420Z,44.93
2022-08-09T12:09:55.369Z,46.01
2022-08-09T12:10:55.327Z,46.40
2022-08-09T12:12:03.317Z,45.15
2022-08-09T12:12:55.252Z,44.76
2022-08-09T12:14:09.317Z,45.05
2022-08-09T12:15:04.044Z,45.05
2022-08-09T12:15:55.141Z,44.88
2022-08-09T12:16:56.368Z,43.38
2022-08-09T12:17:55.065Z,43.51
2022-08-09T12:18:55.029Z,44.31
2022-08-09T12:19:59.579Z,43.82
2022-08-09T12:20:54.954Z,42.47
2022-08-09T12:21:54.913Z,42.19
2022-08-09T12:22:55.712Z,41.21
2022-08-09T12:24:06.455Z,41.14
2022-08-09T12:24:54.803Z,41.35
2022-08-09T12:25:54.764Z,42.25
2022-08-09T12:29:11.738Z,38.68
2022-08-09T12:29:14.151Z,40.72
2022-08-09T12:29:15.034Z,39.64
2022-08-09T12:30:01.541Z,38.10
2022-08-09T12:30:54.579Z,38.02
2022-08-09T12:32:01.882Z,38.64
2022-08-09T12:32:54.508Z,38.16
2022-08-09T12:34:00.805Z,38.37
2022-08-09T12:34:54.431Z,37.11
2022-08-09T12:35:54.396Z,36.34
2022-08-09T12:36:58.918Z,35.57
2022-08-09T12:37:54.318Z,35.07
2022-08-09T12:38:54.295Z,35.40
2022-08-09T12:39:54.246Z,34.43
2022-08-09T12:40:54.211Z,34.23
2022-08-09T12:41:54.174Z,34.45
2022-08-09T12:42:54.146Z,34.06
2022-08-09T12:44:05.880Z,33.77
2022-08-09T12:44:54.437Z,33.69
2022-08-09T12:45:59.970Z,33.50
2022-08-09T12:46:53.991Z,32.23
2022-08-09T12:47:53.952Z,32.05
2022-08-09T12:48:53.920Z,32.05
2022-08-09T12:49:53.880Z,30.96
2022-08-09T12:50:53.845Z,30.66
2022-08-09T12:52:02.150Z,31.26
2022-08-09T12:53:08.076Z,30.77
2022-08-09T12:53:55.042Z,31.68
2022-08-09T12:56:12.145Z,30.79
2022-08-09T12:56:15.907Z,30.41
2022-08-09T12:56:53.918Z,30.72